Time;durP1;ratioP1;P1;durP2;ratioP2;P2;SDS_P1;SDS_P2;PMS_P1;PMS_P2;Temp;Humidity;BMP_temperature;BMP_pressure;BME280_temperature;BME280_humidity;BME280_pressure;Samples;Min_cycle;Max_cycle;Signal;HPM_P1;HPM_P2
2023/07/09 00:02:16;;;;;;;4.85;3.20;;;23.20;82.10;;;;;;5028437;28;20499;-70
2023/07/09 00:04:42;;;;;;;5.07;3.30;;;23.20;82.30;;;;;;5026700;28;20033;-70
2023/07/09 00:07:21;;;;;;;5.78;3.25;;;23.20;82.30;;;;;;5028308;28;20471;-70
2023/07/09 00:09:47;;;;;;;6.88;3.00;;;23.10;82.50;;;;;;5029769;28;20033;-70
2023/07/09 00:12:14;;;;;;;4.90;3.08;;;23.00;82.60;;;;;;5034485;28;20035;-69
2023/07/09 00:14:41;;;;;;;6.03;3.35;;;23.10;82.70;;;;;;5030309;28;20053;-69
2023/07/09 00:17:22;;;;;;;6.32;3.15;;;23.00;83.00;;;;;;5030867;28;20033;-79
2023/07/09 00:19:49;;;;;;;5.93;3.45;;;23.00;83.00;;;;;;5052911;28;20021;-78
2023/07/09 00:22:16;;;;;;;5.05;3.17;;;23.00;83.20;;;;;;5035487;28;20032;-78
2023/07/09 00:24:50;;;;;;;4.18;2.63;;;22.90;83.30;;;;;;5031437;28;20044;-78
2023/07/09 00:27:18;;;;;;;3.58;2.80;;;22.90;83.50;;;;;;5032702;23;20041;-75
2023/07/09 00:29:44;;;;;;;4.72;3.10;;;22.90;83.60;;;;;;5022231;28;20075;-74
2023/07/09 00:32:20;;;;;;;8.30;3.33;;;22.80;83.80;;;;;;5024346;28;20423;-74
2023/07/09 00:34:49;;;;;;;22.67;3.28;;;22.80;84.00;;;;;;5032779;28;20025;-74
2023/07/09 00:37:21;;;;;;;6.60;3.33;;;22.70;84.20;;;;;;5015255;28;20053;-76
2023/07/09 00:39:47;;;;;;;6.93;3.05;;;22.70;84.30;;;;;;5016794;28;20018;-76
2023/07/09 00:42:19;;;;;;;7.22;3.50;;;22.70;84.40;;;;;;5012433;28;20091;-75
2023/07/09 00:44:47;;;;;;;4.18;2.95;;;22.70;84.50;;;;;;5009147;28;20499;-75
2023/07/09 00:47:24;;;;;;;6.78;3.20;;;22.60;84.50;;;;;;5014191;28;20124;-75
2023/07/09 00:49:59;;;;;;;5.35;3.28;;;22.60;84.40;;;;;;5012990;28;20097;-75
2023/07/09 00:52:45;;;;;;;5.10;3.22;;;22.60;84.40;;;;;;5013032;28;20022;-75
2023/07/09 00:55:17;;;;;;;5.93;2.80;;;22.60;85.10;;;;;;5009559;28;20542;-75
2023/07/09 00:57:55;;;;;;;7.80;3.05;;;22.50;84.50;;;;;;5015765;28;20021;-75
2023/07/09 01:00:23;;;;;;;6.32;3.40;;;22.50;84.60;;;;;;5014699;28;20108;-75
2023/07/09 01:02:50;;;;;;;6.78;3.28;;;22.50;84.60;;;;;;5010403;28;20041;-76
2023/07/09 01:05:19;;;;;;;6.75;3.22;;;22.50;84.60;;;;;;5007688;28;20034;-75
2023/07/09 01:07:46;;;;;;;5.55;3.35;;;22.40;84.70;;;;;;5016313;28;20018;-75
2023/07/09 01:10:14;;;;;;;4.60;2.90;;;22.40;84.90;;;;;;5016123;28;20021;-76
2023/07/09 01:12:40;;;;;;;5.60;2.85;;;22.30;85.00;;;;;;5010482;28;20033;-76
2023/07/09 01:15:07;;;;;;;6.00;3.63;;;22.30;85.20;;;;;;5015113;28;20029;-76
2023/07/09 01:17:33;;;;;;;7.10;3.45;;;22.30;85.40;;;;;;5010010;28;20032;-77
2023/07/09 01:19:59;;;;;;;4.40;3.03;;;22.30;85.50;;;;;;5016688;28;20053;-76
2023/07/09 01:22:27;;;;;;;4.88;3.00;;;22.30;85.50;;;;;;5013301;28;20022;-76
2023/07/09 01:25:01;;;;;;;5.70;3.20;;;22.20;85.50;;;;;;5009227;28;20101;-76
2023/07/09 01:27:42;;;;;;;3.70;2.60;;;22.20;85.60;;;;;;5009797;28;20030;-76
2023/07/09 01:30:16;;;;;;;6.05;3.08;;;22.20;85.60;;;;;;5019460;28;20022;-76
2023/07/09 01:32:45;;;;;;;5.57;3.38;;;22.20;85.70;;;;;;5017609;28;20037;-75
2023/07/09 01:35:14;;;;;;;4.75;3.25;;;22.10;86.00;;;;;;5012020;28;20030;-76
2023/07/09 01:37:42;;;;;;;5.65;3.20;;;22.10;86.30;;;;;;5020116;28;20384;-76
2023/07/09 01:40:09;;;;;;;6.93;3.42;;;22.00;86.80;;;;;;5014418;28;20144;-75
2023/07/09 01:42:38;;;;;;;8.13;3.80;;;22.00;87.20;;;;;;5018474;28;20029;-76
2023/07/09 01:45:05;;;;;;;8.38;3.65;;;22.00;87.90;;;;;;5016749;28;20029;-75
2023/07/09 01:47:31;;;;;;;4.95;3.20;;;21.90;88.10;;;;;;5016160;28;20030;-75
2023/07/09 01:49:57;;;;;;;6.68;3.15;;;21.90;88.00;;;;;;5014157;28;20029;-75
2023/07/09 01:52:25;;;;;;;5.47;3.10;;;21.80;88.00;;;;;;5010586;28;20018;-75
2023/07/09 01:54:53;;;;;;;5.25;3.40;;;21.80;87.90;;;;;;5017392;28;20029;-75
2023/07/09 01:57:24;;;;;;;9.68;3.70;;;21.80;87.80;;;;;;5018636;28;20104;-77
2023/07/09 01:59:54;;;;;;;5.07;2.97;;;21.70;87.60;;;;;;5013068;28;20028;-76
2023/07/09 02:02:21;;;;;;;6.60;3.20;;;21.80;87.70;;;;;;5015233;28;20022;-76
2023/07/09 02:04:53;;;;;;;9.32;2.92;;;21.70;87.60;;;;;;5027957;28;20026;-73
2023/07/09 02:07:20;;;;;;;5.53;2.92;;;21.70;87.40;;;;;;5011353;28;20058;-73
2023/07/09 02:09:46;;;;;;;5.40;3.35;;;21.80;87.40;;;;;;5014229;28;20042;-73
2023/07/09 02:12:13;;;;;;;7.20;3.22;;;21.70;87.40;;;;;;5018270;28;20025;-73
2023/07/09 02:14:40;;;;;;;5.47;3.25;;;21.70;87.50;;;;;;5015028;28;20392;-73
2023/07/09 02:17:06;;;;;;;8.40;3.15;;;21.70;87.60;;;;;;5015740;28;20034;-73
2023/07/09 02:19:32;;;;;;;6.10;3.20;;;21.60;87.80;;;;;;5010999;28;20053;-73
2023/07/09 02:21:58;;;;;;;6.20;3.08;;;21.60;87.90;;;;;;5014540;28;20095;-73
2023/07/09 02:24:25;;;;;;;5.65;3.05;;;21.60;88.10;;;;;;5010475;28;20025;-73
2023/07/09 02:26:57;;;;;;;4.43;2.55;;;21.60;88.30;;;;;;5003792;28;20116;-73
2023/07/09 02:29:24;;;;;;;7.00;3.70;;;21.60;88.40;;;;;;5010649;28;20099;-73
2023/07/09 02:31:51;;;;;;;7.55;3.25;;;21.50;88.60;;;;;;5007636;28;20026;-73
2023/07/09 02:34:17;;;;;;;6.20;3.58;;;21.50;88.70;;;;;;5016031;28;20053;-73
2023/07/09 02:36:44;;;;;;;5.22;3.30;;;21.50;88.70;;;;;;5015444;28;20370;-73
2023/07/09 02:39:11;;;;;;;6.18;3.40;;;21.50;88.70;;;;;;5010201;28;20041;-73
2023/07/09 02:41:37;;;;;;;5.55;3.33;;;21.50;88.70;;;;;;5013488;28;20021;-73
2023/07/09 02:44:03;;;;;;;4.78;3.22;;;21.40;88.80;;;;;;5017413;28;20084;-73
2023/07/09 02:46:29;;;;;;;6.18;3.15;;;21.40;89.00;;;;;;5014962;28;20028;-74
2023/07/09 02:48:55;;;;;;;9.48;3.78;;;21.40;89.20;;;;;;5017697;28;20100;-73
2023/07/09 02:51:21;;;;;;;6.50;3.78;;;21.30;90.00;;;;;;5019984;28;20033;-74
2023/07/09 02:53:47;;;;;;;7.57;3.83;;;21.30;90.30;;;;;;5009858;28;20017;-73
2023/07/09 02:56:13;;;;;;;8.45;4.22;;;21.20;90.60;;;;;;5013664;28;20026;-74
2023/07/09 02:58:38;;;;;;;8.05;3.72;;;21.10;90.90;;;;;;5013363;28;20041;-73
2023/07/09 03:01:05;;;;;;;8.38;3.97;;;21.10;91.20;;;;;;5013401;28;20060;-75
2023/07/09 03:03:31;;;;;;;8.00;4.75;;;21.10;91.50;;;;;;5012673;28;20463;-72
2023/07/09 03:05:56;;;;;;;9.63;4.43;;;21.00;91.70;;;;;;5006584;28;20026;-73
2023/07/09 03:08:22;;;;;;;7.95;3.78;;;20.90;91.80;;;;;;5014734;28;20029;-73
2023/07/09 03:10:48;;;;;;;5.00;3.63;;;20.90;91.70;;;;;;5016687;28;20476;-73
2023/07/09 03:13:13;;;;;;;7.00;3.78;;;20.90;91.50;;;;;;5013162;28;20152;-73
2023/07/09 03:15:39;;;;;;;9.80;3.50;;;20.90;91.40;;;;;;5010304;28;20530;-73
2023/07/09 03:18:05;;;;;;;6.55;3.08;;;20.90;91.40;;;;;;5012263;28;20037;-73
2023/07/09 03:20:30;;;;;;;5.97;3.33;;;20.90;91.30;;;;;;5014015;28;20464;-73
2023/07/09 03:22:56;;;;;;;3.90;2.78;;;20.90;91.30;;;;;;5012446;28;20028;-73
2023/07/09 03:25:21;;;;;;;5.38;3.35;;;20.90;91.20;;;;;;5009368;28;20044;-72
2023/07/09 03:27:48;;;;;;;5.25;3.20;;;20.80;91.10;;;;;;5005768;28;20468;-73
2023/07/09 03:30:14;;;;;;;6.22;3.00;;;20.80;91.10;;;;;;5012869;28;20021;-73
2023/07/09 03:32:40;;;;;;;11.00;3.80;;;20.80;91.00;;;;;;5008702;28;20026;-73
2023/07/09 03:35:06;;;;;;;6.05;3.35;;;20.80;91.10;;;;;;5009918;28;20037;-73
2023/07/09 03:37:31;;;;;;;5.22;3.05;;;20.80;91.10;;;;;;5007248;28;20058;-74
2023/07/09 03:39:57;;;;;;;5.70;3.10;;;20.90;91.20;;;;;;5010317;28;20683;-73
2023/07/09 03:42:22;;;;;;;5.05;3.00;;;20.80;91.10;;;;;;5013864;28;20029;-74
2023/07/09 03:44:48;;;;;;;5.72;3.20;;;20.80;91.10;;;;;;5010237;28;20175;-73
2023/07/09 03:47:13;;;;;;;5.68;3.28;;;20.80;91.20;;;;;;5014662;28;20049;-74
2023/07/09 03:49:41;;;;;;;7.80;3.97;;;20.80;91.20;;;;;;5012103;28;20509;-73
2023/07/09 03:52:07;;;;;;;6.78;3.65;;;20.80;91.40;;;;;;5011290;28;20022;-73
2023/07/09 03:54:33;;;;;;;8.73;3.38;;;20.80;91.30;;;;;;5014881;28;20158;-73
2023/07/09 03:56:58;;;;;;;7.65;3.15;;;20.80;91.40;;;;;;5009363;28;20032;-73
2023/07/09 03:59:24;;;;;;;6.60;3.70;;;20.80;91.30;;;;;;5007858;28;20137;-72
2023/07/09 04:01:49;;;;;;;6.03;3.45;;;20.80;91.40;;;;;;5012502;28;20022;-73
2023/07/09 04:04:20;;;;;;;6.13;3.05;;;20.80;91.30;;;;;;5011705;28;20124;-73
2023/07/09 04:06:45;;;;;;;7.35;3.22;;;20.80;91.30;;;;;;5010508;28;20045;-73
2023/07/09 04:09:11;;;;;;;6.43;3.35;;;20.80;91.30;;;;;;5005763;28;20030;-73
2023/07/09 04:11:37;;;;;;;5.90;3.25;;;20.80;91.30;;;;;;5008253;28;20120;-72
2023/07/09 04:14:03;;;;;;;7.15;3.58;;;20.80;91.30;;;;;;5006219;28;20040;-73
2023/07/09 04:16:28;;;;;;;6.07;3.25;;;20.80;91.70;;;;;;5011668;28;20506;-72
2023/07/09 04:18:54;;;;;;;6.05;3.40;;;20.90;91.40;;;;;;5007002;28;20033;-72
2023/07/09 04:21:19;;;;;;;6.18;4.05;;;20.90;91.40;;;;;;5012851;28;20476;-72
2023/07/09 04:23:45;;;;;;;7.63;3.25;;;20.90;91.40;;;;;;5007841;28;20037;-72
2023/07/09 04:26:14;;;;;;;10.82;3.80;;;20.90;91.40;;;;;;5007963;28;20041;-72
2023/07/09 04:28:39;;;;;;;6.35;3.03;;;20.90;91.40;;;;;;5006126;28;20052;-74
2023/07/09 04:31:05;;;;;;;5.38;3.50;;;21.00;91.50;;;;;;5010044;28;20110;-74
2023/07/09 04:33:30;;;;;;;8.90;4.07;;;21.00;91.40;;;;;;5008937;28;20395;-74
2023/07/09 04:35:57;;;;;;;6.90;3.40;;;21.00;91.50;;;;;;5009634;28;20034;-74
2023/07/09 04:38:23;;;;;;;6.10;3.67;;;21.10;91.50;;;;;;5011903;28;20033;-74
2023/07/09 04:40:49;;;;;;;7.43;3.40;;;21.20;91.60;;;;;;5009904;28;20032;-73
2023/07/09 04:43:15;;;;;;;8.38;3.47;;;21.30;91.70;;;;;;5017489;28;20033;-73
2023/07/09 04:45:40;;;;;;;6.93;3.58;;;21.50;91.60;;;;;;5013405;28;20033;-73
2023/07/09 04:48:06;;;;;;;7.25;3.55;;;21.50;91.60;;;;;;5015327;28;20034;-73
2023/07/09 04:50:32;;;;;;;10.18;4.38;;;21.60;91.60;;;;;;5009524;28;20406;-73
2023/07/09 04:52:59;;;;;;;7.88;4.30;;;21.70;91.60;;;;;;5014318;28;20465;-73
2023/07/09 04:55:26;;;;;;;7.20;4.43;;;21.70;91.60;;;;;;5014249;28;20022;-73
2023/07/09 04:57:52;;;;;;;6.05;4.10;;;21.70;91.50;;;;;;5015360;28;20485;-73
2023/07/09 05:00:18;;;;;;;8.55;4.03;;;21.80;91.60;;;;;;5016601;28;20034;-72
2023/07/09 05:02:44;;;;;;;6.18;3.70;;;21.90;91.30;;;;;;5013424;28;20049;-72
2023/07/09 05:05:11;;;;;;;7.07;3.90;;;21.80;91.00;;;;;;5011196;28;20437;-71
2023/07/09 05:07:37;;;;;;;8.00;3.60;;;21.90;91.00;;;;;;5010276;28;20433;-74
2023/07/09 05:10:03;;;;;;;8.20;3.67;;;21.90;90.80;;;;;;5016068;28;20088;-73
2023/07/09 05:12:29;;;;;;;7.10;3.58;;;22.00;90.80;;;;;;5029237;28;20013;-73
2023/07/09 05:14:56;;;;;;;4.63;2.97;;;22.10;90.60;;;;;;5013732;28;20026;-74
2023/07/09 05:17:23;;;;;;;7.95;3.75;;;22.10;90.50;;;;;;5009761;28;20030;-68
2023/07/09 05:19:49;;;;;;;6.30;3.40;;;22.30;90.60;;;;;;5010908;28;20026;-67
2023/07/09 05:22:15;;;;;;;8.63;3.85;;;22.30;90.60;;;;;;5015650;28;20048;-67
2023/07/09 05:24:41;;;;;;;8.18;4.20;;;22.30;90.70;;;;;;5007565;28;20485;-69
2023/07/09 05:27:06;;;;;;;8.52;4.50;;;22.30;90.80;;;;;;5010304;28;20112;-69
2023/07/09 05:29:32;;;;;;;6.00;3.88;;;22.30;90.80;;;;;;5009375;28;20128;-69
2023/07/09 05:31:58;;;;;;;10.50;3.95;;;22.30;90.70;;;;;;5016125;28;20052;-69
2023/07/09 05:34:23;;;;;;;8.70;3.88;;;22.40;90.70;;;;;;5012336;28;20544;-69
2023/07/09 05:36:49;;;;;;;4.95;3.28;;;22.50;90.70;;;;;;5009066;28;20084;-69
2023/07/09 05:39:16;;;;;;;10.30;3.95;;;22.50;90.50;;;;;;5011489;28;20049;-68
2023/07/09 05:41:41;;;;;;;6.07;3.60;;;22.60;90.30;;;;;;5006632;28;20036;-68
2023/07/09 05:44:07;;;;;;;6.43;3.70;;;22.70;90.20;;;;;;5011014;28;20403;-68
2023/07/09 05:46:37;;;;;;;6.93;4.05;;;22.80;90.20;;;;;;5011985;28;20088;-68
2023/07/09 05:49:04;;;;;;;5.95;4.43;;;22.90;90.10;;;;;;5010323;28;20043;-68
2023/07/09 05:51:29;;;;;;;6.70;3.60;;;22.90;90.00;;;;;;5008333;28;20512;-68
2023/07/09 05:53:55;;;;;;;10.60;3.88;;;22.90;89.10;;;;;;5007747;28;20022;-67
2023/07/09 05:56:21;;;;;;;11.73;4.75;;;22.90;89.70;;;;;;5008431;28;20384;-65
2023/07/09 05:58:47;;;;;;;6.28;3.42;;;23.00;90.30;;;;;;5014139;28;20036;-65
2023/07/09 06:01:13;;;;;;;7.22;3.35;;;23.00;89.70;;;;;;5009458;28;20677;-73
2023/07/09 06:03:38;;;;;;;6.68;3.80;;;23.10;89.70;;;;;;5011988;28;20034;-73
2023/07/09 06:06:04;;;;;;;10.13;4.38;;;23.20;89.40;;;;;;5011206;28;20026;-72
2023/07/09 06:08:30;;;;;;;8.35;4.18;;;23.30;89.20;;;;;;5009226;28;20029;-72
2023/07/09 06:11:00;;;;;;;11.98;4.90;;;23.40;88.90;;;;;;5018001;28;20164;-72
2023/07/09 06:13:27;;;;;;;5.95;3.97;;;23.60;88.50;;;;;;5019718;28;20029;-73
2023/07/09 06:15:55;;;;;;;6.45;4.07;;;23.70;88.20;;;;;;5012709;28;20029;-74
2023/07/09 06:18:21;;;;;;;8.50;4.28;;;23.80;88.00;;;;;;5018331;28;20030;-74
2023/07/09 06:20:52;;;;;;;5.55;3.95;;;23.80;87.70;;;;;;5014991;28;20026;-73
2023/07/09 06:23:18;;;;;;;8.98;4.10;;;23.90;87.60;;;;;;5018030;28;20026;-73
2023/07/09 06:25:48;;;;;;;6.80;3.83;;;23.90;87.30;;;;;;5011995;28;20022;-74
2023/07/09 06:28:16;;;;;;;7.15;4.00;;;23.90;87.30;;;;;;5043051;22;20128;-77
2023/07/09 06:30:45;;;;;;;7.25;4.20;;;24.00;87.50;;;;;;5047814;28;20040;-77
2023/07/09 06:33:12;;;;;;;5.00;3.80;;;24.00;87.50;;;;;;5044954;28;20024;-77
2023/07/09 06:35:39;;;;;;;8.35;4.43;;;24.10;87.40;;;;;;5048755;28;20632;-77
2023/07/09 06:38:06;;;;;;;5.43;3.63;;;24.10;87.30;;;;;;5036668;28;20018;-77
2023/07/09 06:40:31;;;;;;;7.55;4.40;;;24.10;87.40;;;;;;5032198;28;20455;-77
2023/07/09 06:42:57;;;;;;;6.13;4.10;;;24.20;87.40;;;;;;5036041;28;20101;-77
2023/07/09 06:45:24;;;;;;;6.05;3.90;;;24.30;87.50;;;;;;5029477;28;20046;-78
2023/07/09 06:47:49;;;;;;;5.70;3.97;;;24.30;87.50;;;;;;5011528;28;20029;-76
2023/07/09 06:50:15;;;;;;;6.45;3.38;;;24.40;87.20;;;;;;5030381;28;20025;-75
2023/07/09 06:52:41;;;;;;;10.40;4.20;;;24.40;87.20;;;;;;5025916;28;20064;-74
2023/07/09 06:55:07;;;;;;;5.47;4.22;;;24.50;87.20;;;;;;5032400;28;20022;-77
2023/07/09 06:57:33;;;;;;;5.30;4.10;;;24.60;86.70;;;;;;5021037;28;20026;-77
2023/07/09 06:59:58;;;;;;;6.65;3.97;;;24.60;86.50;;;;;;5036035;28;20112;-78
2023/07/09 07:02:24;;;;;;;8.10;4.78;;;24.60;86.50;;;;;;5032104;28;20393;-76
2023/07/09 07:04:50;;;;;;;7.97;4.72;;;24.60;86.40;;;;;;5039689;28;20028;-76
2023/07/09 07:07:15;;;;;;;5.47;3.75;;;24.60;87.00;;;;;;5035460;28;20399;-76
2023/07/09 07:09:41;;;;;;;8.48;4.45;;;24.60;86.40;;;;;;5029374;28;20068;-75
2023/07/09 07:12:07;;;;;;;7.65;4.22;;;24.70;86.60;;;;;;5033808;28;20060;-77
2023/07/09 07:14:33;;;;;;;7.88;4.88;;;24.80;86.50;;;;;;5034908;28;20025;-76
2023/07/09 07:16:58;;;;;;;7.75;4.32;;;24.90;86.40;;;;;;5026273;28;20117;-77
2023/07/09 07:19:24;;;;;;;7.90;4.75;;;24.90;86.00;;;;;;5025425;28;20029;-75
2023/07/09 07:21:50;;;;;;;7.25;4.43;;;25.00;85.90;;;;;;5014443;28;20018;-76
2023/07/09 07:24:15;;;;;;;8.80;4.93;;;25.00;85.60;;;;;;5031937;28;20632;-76
2023/07/09 07:26:41;;;;;;;7.18;4.20;;;25.00;85.50;;;;;;5012910;28;20071;-76
2023/07/09 07:29:06;;;;;;;8.40;4.75;;;25.10;85.50;;;;;;5015674;28;20033;-76
2023/07/09 07:31:32;;;;;;;9.13;4.78;;;25.10;85.00;;;;;;5031908;28;20029;-75
2023/07/09 07:33:58;;;;;;;5.97;4.25;;;25.20;85.20;;;;;;5013288;28;20036;-74
2023/07/09 07:36:23;;;;;;;7.20;4.05;;;25.20;85.20;;;;;;5029661;28;20502;-77
2023/07/09 07:38:49;;;;;;;8.02;4.32;;;25.30;84.80;;;;;;5012359;28;20104;-76
2023/07/09 07:41:14;;;;;;;8.55;4.22;;;25.40;84.80;;;;;;5031910;28;20500;-76
2023/07/09 07:43:40;;;;;;;7.07;4.50;;;25.40;84.40;;;;;;5028042;28;20025;-76
2023/07/09 07:46:07;;;;;;;5.38;4.07;;;25.50;83.90;;;;;;5011493;28;20037;-76
2023/07/09 07:48:33;;;;;;;10.60;4.72;;;25.60;83.50;;;;;;5026956;28;20028;-76
2023/07/09 07:51:01;;;;;;;11.38;4.43;;;25.70;83.60;;;;;;5009189;28;20108;-76
2023/07/09 07:53:29;;;;;;;6.38;4.35;;;25.80;83.60;;;;;;5031204;28;20017;-76
2023/07/09 07:55:56;;;;;;;6.85;4.75;;;25.80;83.40;;;;;;5013788;28;20021;-76
2023/07/09 07:58:22;;;;;;;6.93;4.80;;;25.90;82.90;;;;;;5030780;28;20068;-76
2023/07/09 08:00:47;;;;;;;6.65;3.70;;;26.00;83.00;;;;;;5014463;28;20033;-75
2023/07/09 08:03:13;;;;;;;6.82;3.90;;;26.10;83.00;;;;;;5015979;28;23052;-76
2023/07/09 08:05:39;;;;;;;6.90;4.20;;;26.20;82.60;;;;;;5030332;28;20119;-76
2023/07/09 08:08:05;;;;;;;9.02;4.75;;;26.30;82.00;;;;;;5015014;28;20040;-75
2023/07/09 08:10:30;;;;;;;8.77;4.07;;;26.50;81.60;;;;;;5024093;28;20034;-77
2023/07/09 08:12:57;;;;;;;6.80;3.80;;;26.60;80.80;;;;;;5033125;28;20021;-77
2023/07/09 08:15:24;;;;;;;8.23;3.80;;;26.70;79.70;;;;;;5027074;28;20029;-75
2023/07/09 08:17:50;;;;;;;5.57;3.83;;;26.80;76.90;;;;;;5029906;28;20517;-77
2023/07/09 08:20:15;;;;;;;7.03;3.72;;;27.00;77.30;;;;;;5029164;28;20135;-77
2023/07/09 08:22:41;;;;;;;7.85;3.83;;;27.00;77.00;;;;;;5013326;28;20075;-76
2023/07/09 08:25:07;;;;;;;6.65;3.75;;;27.10;76.30;;;;;;5006919;28;20091;-76
2023/07/09 08:27:33;;;;;;;6.35;3.55;;;27.20;75.90;;;;;;5026536;28;20503;-77
2023/07/09 08:30:00;;;;;;;7.00;4.38;;;27.30;75.80;;;;;;4998804;28;20032;-78
2023/07/09 08:32:26;;;;;;;7.18;3.72;;;27.50;76.10;;;;;;5031513;28;20476;-72
2023/07/09 08:34:51;;;;;;;5.88;4.57;;;27.50;76.20;;;;;;5037270;28;20025;-77
2023/07/09 08:37:17;;;;;;;5.55;3.42;;;27.60;75.80;;;;;;5040520;28;20026;-77
2023/07/09 08:39:42;;;;;;;5.82;3.75;;;27.70;75.80;;;;;;5020504;28;20033;-77
2023/07/09 08:42:13;;;;;;;8.88;4.32;;;27.80;75.70;;;;;;5038787;28;20033;-78
2023/07/09 08:44:41;;;;;;;6.72;3.63;;;27.90;75.00;;;;;;5025336;28;20034;-77
2023/07/09 08:47:14;;;;;;;6.40;3.63;;;28.00;74.70;;;;;;5026222;28;20033;-77
2023/07/09 08:49:46;;;;;;;8.50;4.20;;;28.10;74.20;;;;;;5026920;28;20484;-77
2023/07/09 08:52:25;;;;;;;7.88;3.33;;;28.20;73.70;;;;;;5026195;28;20490;-77
2023/07/09 08:54:52;;;;;;;4.95;3.42;;;28.30;73.10;;;;;;5026397;28;20021;-77
2023/07/09 08:57:26;;;;;;;6.15;3.63;;;28.30;72.90;;;;;;5044459;28;20060;-77
2023/07/09 09:00:00;;;;;;;7.10;4.13;;;28.40;73.00;;;;;;5026803;28;20404;-76
2023/07/09 09:02:38;;;;;;;6.47;3.75;;;28.50;73.00;;;;;;5025831;28;20539;-77
2023/07/09 09:05:05;;;;;;;7.25;4.60;;;28.60;72.20;;;;;;5026635;28;20025;-75
2023/07/09 09:07:41;;;;;;;7.20;3.63;;;28.70;72.20;;;;;;5042564;28;20025;-76
2023/07/09 09:10:36;;;;;;;4.68;3.75;;;28.80;71.90;;;;;;5025070;28;20476;-76
2023/07/09 09:13:13;;;;;;;6.80;3.45;;;28.90;71.60;;;;;;5003143;28;20033;-77
2023/07/09 09:15:42;;;;;;;4.90;3.65;;;28.90;71.60;;;;;;5025649;28;20018;-77
2023/07/09 09:18:30;;;;;;;8.50;4.13;;;29.00;71.10;;;;;;5043369;28;20022;-77
2023/07/09 09:21:03;;;;;;;6.32;3.75;;;29.10;70.50;;;;;;5043845;28;20032;-77
2023/07/09 09:23:36;;;;;;;;;;;29.20;70.10;;;;;;5043802;28;20025;-77
2023/07/09 09:26:09;;;;;;;8.75;4.10;;;29.20;69.50;;;;;;5026115;28;19915;-77
2023/07/09 09:28:37;;;;;;;11.07;4.28;;;29.30;69.30;;;;;;5025167;28;20495;-77
2023/07/09 09:31:03;;;;;;;5.38;3.50;;;29.40;69.40;;;;;;5022239;28;20099;-76
2023/07/09 09:33:44;;;;;;;6.13;3.33;;;29.40;69.30;;;;;;5039844;28;20032;-76
2023/07/09 09:36:36;;;;;;;5.88;3.40;;;29.40;68.40;;;;;;5024099;28;20026;-76
2023/07/09 09:39:02;;;;;;;6.60;3.63;;;29.50;68.50;;;;;;5036549;28;20034;-76
2023/07/09 09:41:35;;;;;;;4.45;3.40;;;29.50;68.20;;;;;;5022037;28;20041;-76
2023/07/09 09:44:00;;;;;;;6.93;3.53;;;29.60;68.10;;;;;;5022348;28;20093;-77
2023/07/09 09:46:27;;;;;;;6.90;3.63;;;29.60;68.00;;;;;;5022155;28;20071;-76
2023/07/09 09:48:59;;;;;;;4.60;3.38;;;29.80;67.60;;;;;;5038952;28;20083;-77
2023/07/09 09:51:26;;;;;;;4.60;3.30;;;29.90;67.10;;;;;;5021568;28;20411;-77
2023/07/09 09:53:59;;;;;;;8.07;3.90;;;29.90;66.30;;;;;;5022900;28;20026;-77
2023/07/09 09:56:36;;;;;;;6.50;3.58;;;30.00;66.40;;;;;;5042209;28;20032;-77
2023/07/09 09:59:03;;;;;;;5.60;3.50;;;30.10;66.80;;;;;;5026033;28;20072;-77
2023/07/09 10:01:34;;;;;;;7.28;3.50;;;30.10;66.60;;;;;;5043480;28;20052;-77
2023/07/09 10:04:03;;;;;;;6.30;3.10;;;30.20;66.00;;;;;;5040958;28;20025;-76
2023/07/09 10:06:28;;;;;;;6.68;3.67;;;30.20;65.90;;;;;;5022645;28;20022;-76
2023/07/09 10:09:05;;;;;;;5.22;3.40;;;30.30;65.70;;;;;;5024412;28;20029;-76
2023/07/09 10:11:56;;;;;;;6.28;3.55;;;30.30;65.70;;;;;;5041892;28;20029;-75
2023/07/09 10:14:34;;;;;;;5.65;3.53;;;30.30;65.20;;;;;;5042202;28;20025;-75
2023/07/09 10:17:16;;;;;;;4.93;3.70;;;30.40;65.50;;;;;;5023639;28;20096;-76
2023/07/09 10:20:00;;;;;;;4.60;3.13;;;30.40;65.50;;;;;;5043698;28;20021;-76
2023/07/09 10:22:40;;;;;;;;;;;30.50;65.60;;;;;;5023521;28;20029;-76
2023/07/09 10:25:37;;;;;;;7.20;4.03;;;30.50;64.60;;;;;;5022676;28;19912;-76
2023/07/09 10:28:14;;;;;;;5.75;3.60;;;30.70;64.80;;;;;;5041613;28;20041;-76
2023/07/09 10:30:48;;;;;;;5.82;3.92;;;30.80;64.60;;;;;;5023895;28;20081;-76
2023/07/09 10:33:41;;;;;;;5.00;3.30;;;30.80;64.30;;;;;;5041463;28;20021;-77
2023/07/09 10:36:33;;;;;;;5.88;3.00;;;30.80;63.70;;;;;;5040355;28;20025;-77
2023/07/09 10:39:05;;;;;;;6.30;3.30;;;30.90;64.10;;;;;;5039539;28;20022;-77
2023/07/09 10:41:33;;;;;;;5.88;3.30;;;30.90;63.80;;;;;;5021396;28;20064;-77
2023/07/09 10:44:21;;;;;;;5.25;3.28;;;30.90;62.10;;;;;;5021439;28;20434;-76
2023/07/09 10:46:53;;;;;;;4.75;3.20;;;30.90;61.30;;;;;;5020904;28;20373;-77
2023/07/09 10:49:21;;;;;;;5.07;3.47;;;31.00;60.10;;;;;;5021065;28;20458;-77
2023/07/09 10:51:55;;;;;;;6.40;3.22;;;31.00;58.70;;;;;;5038998;28;20663;-77
2023/07/09 10:54:37;;;;;;;5.70;3.65;;;31.00;58.20;;;;;;5038423;28;20028;-76
2023/07/09 10:57:14;;;;;;;6.40;3.28;;;31.10;56.00;;;;;;5020657;28;20082;-77
2023/07/09 10:59:42;;;;;;;11.63;3.60;;;31.20;55.80;;;;;;5037527;28;20068;-77
2023/07/09 11:02:32;;;;;;;7.75;3.15;;;31.30;56.40;;;;;;5020210;28;20047;-77
2023/07/09 11:05:05;;;;;;;7.50;3.13;;;31.40;54.40;;;;;;5011100;28;20034;-76
2023/07/09 11:08:03;;;;;;;7.13;3.83;;;31.40;55.10;;;;;;5038376;28;20029;-76
2023/07/09 11:10:40;;;;;;;6.47;3.45;;;31.40;56.40;;;;;;5021135;28;20025;-76
2023/07/09 11:13:14;;;;;;;6.85;3.20;;;31.40;56.40;;;;;;5020971;28;20072;-77
2023/07/09 11:15:43;;;;;;;6.60;3.85;;;31.50;56.00;;;;;;5021735;28;20036;-78
2023/07/09 11:18:16;;;;;;;7.30;3.30;;;31.50;56.00;;;;;;5038789;28;20025;-75
2023/07/09 11:20:43;;;;;;;;;;;31.60;56.20;;;;;;5040114;28;20079;-76
2023/07/09 11:23:18;;;;;;;6.78;3.67;;;31.60;57.00;;;;;;5039419;28;19905;-77
2023/07/09 11:25:49;;;;;;;6.40;3.47;;;31.70;56.40;;;;;;5022144;28;20018;-76
2023/07/09 11:28:15;;;;;;;6.38;3.40;;;31.70;55.00;;;;;;5021211;28;20099;-76
2023/07/09 11:30:52;;;;;;;5.78;3.58;;;31.80;55.60;;;;;;5039151;28;20033;-76
2023/07/09 11:33:25;;;;;;;7.20;3.17;;;31.80;55.80;;;;;;5020217;28;20057;-76
2023/07/09 11:36:05;;;;;;;5.95;3.95;;;31.80;55.80;;;;;;5020908;28;20017;-76
2023/07/09 11:38:42;;;;;;;6.93;3.75;;;32.00;55.90;;;;;;5020139;28;20029;-76
2023/07/09 11:41:46;;;;;;;6.63;3.47;;;32.00;55.80;;;;;;5020844;28;20045;-76
2023/07/09 11:44:19;;;;;;;7.30;3.70;;;31.90;55.10;;;;;;5038250;28;20056;-76
2023/07/09 11:47:19;;;;;;;8.00;3.88;;;31.90;55.40;;;;;;5020578;28;20112;-76
2023/07/09 11:50:00;;;;;;;6.68;3.67;;;31.90;55.70;;;;;;5037462;28;20082;-76
2023/07/09 11:52:33;;;;;;;8.63;5.60;;;31.90;56.00;;;;;;5019522;28;20017;-76
2023/07/09 11:55:03;;;;;;;5.38;3.00;;;32.00;55.80;;;;;;5019162;28;20022;-77
2023/07/09 11:57:29;;;;;;;6.05;3.40;;;31.90;55.30;;;;;;5038585;28;20468;-77
2023/07/09 12:00:00;;;;;;;8.48;3.72;;;31.90;55.50;;;;;;5021274;28;20029;-77
2023/07/09 12:02:33;;;;;;;7.80;3.22;;;31.90;54.50;;;;;;5039371;28;20025;-77
2023/07/09 12:04:59;;;;;;;12.25;5.88;;;32.00;54.70;;;;;;5038083;28;20029;-76
2023/07/09 12:07:26;;;;;;;8.93;5.32;;;32.10;55.10;;;;;;5038182;28;20033;-77
2023/07/09 12:09:51;;;;;;;7.93;4.95;;;32.20;55.00;;;;;;5038450;28;20070;-77
2023/07/09 12:12:23;;;;;;;6.22;3.95;;;32.30;54.30;;;;;;5039594;28;20448;-77
2023/07/09 12:14:49;;;;;;;7.32;3.22;;;32.40;53.50;;;;;;5021624;28;20026;-77
2023/07/09 12:17:15;;;;;;;7.05;3.55;;;32.40;53.10;;;;;;5021815;28;20049;-77
2023/07/09 12:19:41;;;;;;;5.97;3.60;;;32.40;53.30;;;;;;5020487;28;20028;-75
2023/07/09 12:22:13;;;;;;;6.20;2.80;;;32.50;53.60;;;;;;5015557;28;20022;-75
2023/07/09 12:24:43;;;;;;;6.93;3.42;;;32.50;54.00;;;;;;5028896;28;20491;-75
2023/07/09 12:27:24;;;;;;;7.38;3.40;;;32.50;53.30;;;;;;5025665;28;20029;-75
2023/07/09 12:29:56;;;;;;;6.57;3.08;;;32.50;52.70;;;;;;5103608;22;20056;-79
2023/07/09 12:32:26;;;;;;;6.37;3.17;;;32.60;52.60;;;;;;5023603;28;20026;-75
2023/07/09 12:34:55;;;;;;;4.35;3.20;;;32.50;52.80;;;;;;5034584;28;20018;-75
2023/07/09 12:37:24;;;;;;;6.80;4.18;;;32.60;53.10;;;;;;5051329;28;20072;-75
2023/07/09 12:39:54;;;;;;;8.38;3.83;;;32.70;53.60;;;;;;5023007;28;20044;-75
2023/07/09 12:42:28;;;;;;;8.05;2.80;;;32.60;52.80;;;;;;5035758;28;20243;-78
2023/07/09 12:44:53;;;;;;;4.70;3.67;;;32.70;53.10;;;;;;5058368;28;20021;-79
2023/07/09 12:47:20;;;;;;;6.18;3.00;;;32.80;52.80;;;;;;5040993;28;20040;-75
2023/07/09 12:49:50;;;;;;;6.32;4.00;;;32.90;53.20;;;;;;5046760;28;20154;-77
2023/07/09 12:52:21;;;;;;;7.72;3.30;;;32.90;53.10;;;;;;5030615;28;20483;-78
2023/07/09 12:55:01;;;;;;;6.57;3.50;;;32.90;52.90;;;;;;5045839;28;20457;-76
2023/07/09 12:57:28;;;;;;;5.10;3.50;;;32.90;52.70;;;;;;5029043;28;20078;-77
2023/07/09 12:59:58;;;;;;;6.35;3.45;;;32.90;52.90;;;;;;5048465;28;20047;-78